createdAt,value
2018-03-25T00:00:26.087Z,9.6
2018-03-25T00:01:06.513Z,9.61
2018-03-25T00:01:47.027Z,9.6
2018-03-25T00:02:27.541Z,9.57
2018-03-25T00:03:08.011Z,9.51
2018-03-25T00:03:48.524Z,9.53
2018-03-25T00:04:29.040Z,9.47
2018-03-25T00:05:09.486Z,9.46
2018-03-25T00:05:49.993Z,9.47
2018-03-25T00:06:30.497Z,9.5
2018-03-25T00:07:10.985Z,9.43
2018-03-25T00:07:51.461Z,9.4
2018-03-25T00:08:31.945Z,9.51
2018-03-25T00:09:12.407Z,9.5
2018-03-25T00:09:52.928Z,9.56
2018-03-25T00:10:33.435Z,9.5
2018-03-25T00:11:13.977Z,9.51
2018-03-25T00:11:54.504Z,9.51
2018-03-25T00:12:35.008Z,9.5
2018-03-25T00:13:15.471Z,9.53
2018-03-25T00:13:55.964Z,9.46
2018-03-25T00:14:36.441Z,9.57
2018-03-25T00:15:16.942Z,9.54
2018-03-25T00:15:57.433Z,9.57
2018-03-25T00:16:37.903Z,9.5
2018-03-25T00:17:18.372Z,9.61
2018-03-25T00:17:58.869Z,9.53
2018-03-25T00:18:39.327Z,9.47
2018-03-25T00:19:19.887Z,9.5
2018-03-25T00:20:00.381Z,9.47
2018-03-25T00:20:40.881Z,9.48
2018-03-25T00:21:21.330Z,9.56
2018-03-25T00:22:01.875Z,9.5
2018-03-25T00:22:42.386Z,9.51
2018-03-25T00:23:22.894Z,9.42
2018-03-25T00:24:03.328Z,9.51
2018-03-25T00:24:43.843Z,9.5
2018-03-25T00:25:24.316Z,9.51
2018-03-25T00:26:04.785Z,9.53
2018-03-25T00:26:45.369Z,9.47
2018-03-25T00:27:25.789Z,9.5
2018-03-25T00:28:06.328Z,9.48
2018-03-25T00:28:46.801Z,9.48
2018-03-25T00:29:27.307Z,9.56
2018-03-25T00:30:07.800Z,9.46
2018-03-25T00:30:48.247Z,9.43
2018-03-25T00:31:28.778Z,9.56
2018-03-25T00:32:09.249Z,9.54
2018-03-25T00:32:49.759Z,9.47
2018-03-25T00:33:30.265Z,9.47
2018-03-25T00:34:10.768Z,9.48
2018-03-25T00:34:51.260Z,9.53
2018-03-25T00:35:31.750Z,9.36
2018-03-25T00:36:12.273Z,9.54
2018-03-25T00:36:52.761Z,9.43
2018-03-25T00:37:33.299Z,9.43
2018-03-25T00:38:13.818Z,9.47
2018-03-25T00:38:54.339Z,9.54
2018-03-25T00:39:34.827Z,9.5
2018-03-25T00:40:15.313Z,9.51
2018-03-25T00:40:55.854Z,9.48
2018-03-25T00:41:36.358Z,9.53
2018-03-25T00:42:16.878Z,9.53
2018-03-25T00:42:57.313Z,9.42
2018-03-25T00:43:37.789Z,9.4
2018-03-25T00:44:18.299Z,9.39
2018-03-25T00:44:58.739Z,9.46
2018-03-25T00:45:39.228Z,9.31
2018-03-25T00:46:19.712Z,9.23
2018-03-25T00:47:00.228Z,9.29
2018-03-25T00:47:40.753Z,9.31
2018-03-25T00:48:21.261Z,9.36
2018-03-25T00:49:01.745Z,9.23
2018-03-25T00:49:42.281Z,9.26
2018-03-25T00:50:22.836Z,9.31
2018-03-25T00:51:03.263Z,9.26
2018-03-25T00:51:43.755Z,9.29
2018-03-25T00:52:24.279Z,9.23
2018-03-25T00:53:04.792Z,9.26
2018-03-25T00:53:45.251Z,9.35
2018-03-25T00:54:25.736Z,9.26
2018-03-25T00:55:06.226Z,9.15
2018-03-25T00:55:46.658Z,9.14
2018-03-25T00:56:27.184Z,9.14
2018-03-25T00:57:07.657Z,9.14
2018-03-25T00:57:48.339Z,9.1
2018-03-25T00:58:28.834Z,9.1
2018-03-25T00:59:09.377Z,9.11
2018-03-25T00:59:49.892Z,9.14
2018-03-25T01:00:30.381Z,9.13
2018-03-25T01:01:10.926Z,9.02
2018-03-25T01:01:51.389Z,9.11
2018-03-25T01:02:31.914Z,8.99
2018-03-25T01:03:12.441Z,8.96
2018-03-25T01:03:52.917Z,9.05
2018-03-25T01:04:33.413Z,9.1
2018-03-25T01:05:13.912Z,9.14
2018-03-25T01:05:54.374Z,9.08
2018-03-25T01:06:34.920Z,9.11
2018-03-25T01:07:15.367Z,9.02
2018-03-25T01:07:55.875Z,8.96
2018-03-25T01:08:36.387Z,8.83
2018-03-25T01:09:16.884Z,8.92
2018-03-25T01:09:57.394Z,8.81
2018-03-25T01:10:37.874Z,8.81
2018-03-25T01:11:18.372Z,8.79
2018-03-25T01:11:58.849Z,8.86
2018-03-25T01:12:39.335Z,8.92
2018-03-25T01:13:19.828Z,8.95
2018-03-25T01:14:00.347Z,9.01
2018-03-25T01:14:40.801Z,8.98
2018-03-25T01:15:21.313Z,8.98
2018-03-25T01:16:01.900Z,8.98
2018-03-25T01:16:42.321Z,8.95
2018-03-25T01:17:22.865Z,9.01
2018-03-25T01:18:03.324Z,8.99
2018-03-25T01:18:43.779Z,8.98
2018-03-25T01:19:24.291Z,8.96
2018-03-25T01:20:04.768Z,8.95
2018-03-25T01:20:45.314Z,8.98
2018-03-25T01:21:25.712Z,8.98
2018-03-25T01:22:06.258Z,9.04
2018-03-25T01:22:46.740Z,8.99
2018-03-25T01:23:27.268Z,8.91
2018-03-25T01:24:07.768Z,8.84
2018-03-25T01:24:48.240Z,8.86
2018-03-25T01:25:28.758Z,8.81
2018-03-25T01:26:09.265Z,8.76
2018-03-25T01:26:49.804Z,8.83
2018-03-25T01:27:30.263Z,8.71
2018-03-25T01:28:10.772Z,8.74
2018-03-25T01:28:51.299Z,8.7
2018-03-25T01:29:31.764Z,8.7
2018-03-25T01:30:12.286Z,8.65
2018-03-25T01:30:55.331Z,8.65
2018-03-25T01:31:35.818Z,8.71
2018-03-25T01:32:16.328Z,8.59
2018-03-25T01:32:56.804Z,8.53
2018-03-25T01:33:37.343Z,8.52
2018-03-25T01:34:17.890Z,8.55
2018-03-25T01:34:58.386Z,8.56
2018-03-25T01:35:38.884Z,8.58
2018-03-25T01:36:19.360Z,8.55
2018-03-25T01:36:59.906Z,8.58
2018-03-25T01:37:40.368Z,8.61
2018-03-25T01:38:20.893Z,8.68
2018-03-25T01:39:01.388Z,8.7
2018-03-25T01:39:41.851Z,8.68
2018-03-25T01:40:22.364Z,8.74
2018-03-25T01:41:02.861Z,8.59
2018-03-25T01:41:43.364Z,8.62
2018-03-25T01:42:23.844Z,8.68
2018-03-25T01:43:04.349Z,8.63
2018-03-25T01:43:44.829Z,8.68
2018-03-25T01:44:25.303Z,8.58
2018-03-25T01:45:05.796Z,8.55
2018-03-25T01:45:46.240Z,8.62
2018-03-25T01:46:26.736Z,8.7
2018-03-25T01:47:07.242Z,8.66
2018-03-25T01:47:47.690Z,8.73
2018-03-25T01:48:28.219Z,8.77
2018-03-25T01:49:08.706Z,8.81
2018-03-25T01:49:49.198Z,8.84
2018-03-25T01:50:29.702Z,8.81
2018-03-25T01:51:10.227Z,8.68
2018-03-25T01:51:50.687Z,8.58
2018-03-25T01:52:31.178Z,8.61
2018-03-25T01:53:11.674Z,8.61
2018-03-25T01:53:52.170Z,8.5
2018-03-25T01:54:32.643Z,8.41
2018-03-25T01:55:13.104Z,8.37
2018-03-25T01:55:53.580Z,8.41
2018-03-25T01:56:34.120Z,8.37
2018-03-25T01:57:14.550Z,8.41
2018-03-25T01:57:55.056Z,8.4
2018-03-25T01:58:35.573Z,8.44
2018-03-25T01:59:16.075Z,8.34
2018-03-25T01:59:56.553Z,8.37
2018-03-25T02:00:37.056Z,8.33
2018-03-25T02:01:17.583Z,8.29
2018-03-25T02:01:58.023Z,8.3
2018-03-25T02:02:38.511Z,8.23
2018-03-25T02:03:19.065Z,8.19
2018-03-25T02:03:59.580Z,8.1
2018-03-25T02:04:40.055Z,8
2018-03-25T02:05:20.560Z,8.07
2018-03-25T02:06:01.015Z,8.11
2018-03-25T02:06:41.498Z,8.07
2018-03-25T02:07:22.013Z,8.02
2018-03-25T02:08:02.543Z,7.98
2018-03-25T02:08:42.959Z,7.9
2018-03-25T02:09:23.506Z,7.93
2018-03-25T02:10:03.991Z,8.02
2018-03-25T02:10:44.412Z,8.05
2018-03-25T02:11:24.912Z,8.01
2018-03-25T02:12:05.390Z,8.11
2018-03-25T02:12:45.910Z,8.07
2018-03-25T02:13:26.343Z,8.1
2018-03-25T02:14:06.900Z,8.12
2018-03-25T02:14:47.395Z,8.15
2018-03-25T02:15:27.858Z,8.04
2018-03-25T02:16:08.364Z,8.1
2018-03-25T02:16:48.814Z,8.1
2018-03-25T02:17:29.299Z,8.11
2018-03-25T02:18:09.766Z,8.04
2018-03-25T02:18:50.232Z,8.02
2018-03-25T02:19:30.719Z,8.11
2018-03-25T02:20:11.187Z,8.02
2018-03-25T02:20:51.688Z,8
2018-03-25T02:21:32.221Z,7.89
2018-03-25T02:22:12.764Z,7.93
2018-03-25T02:22:53.268Z,8
2018-03-25T02:23:33.797Z,8
2018-03-25T02:24:14.236Z,7.98
2018-03-25T02:24:54.737Z,7.83
2018-03-25T02:25:35.223Z,7.82
2018-03-25T02:26:15.717Z,7.86
2018-03-25T02:26:56.206Z,7.86
2018-03-25T02:27:36.673Z,7.8
2018-03-25T02:28:17.135Z,7.86
2018-03-25T02:28:57.644Z,7.83
2018-03-25T02:29:38.151Z,7.93
2018-03-25T02:30:18.648Z,7.74
2018-03-25T02:30:59.133Z,7.69
2018-03-25T02:31:39.598Z,7.71
2018-03-25T02:32:20.118Z,7.79
2018-03-25T02:33:00.573Z,7.71
2018-03-25T02:33:41.128Z,7.71
2018-03-25T02:34:21.557Z,7.74
2018-03-25T02:35:02.037Z,7.74
2018-03-25T02:35:42.507Z,7.79
2018-03-25T02:36:22.993Z,7.92
2018-03-25T02:37:03.477Z,7.67
2018-03-25T02:37:43.938Z,7.67
2018-03-25T02:38:24.413Z,7.64
2018-03-25T02:39:04.977Z,7.71
2018-03-25T02:39:45.461Z,7.83
2018-03-25T02:40:25.961Z,7.85
2018-03-25T02:41:06.457Z,7.75
2018-03-25T02:41:46.938Z,7.85
2018-03-25T02:42:27.443Z,7.8
2018-03-25T02:43:07.908Z,7.72
2018-03-25T02:43:48.374Z,7.67
2018-03-25T02:44:28.909Z,7.69
2018-03-25T02:45:09.410Z,7.63
2018-03-25T02:45:49.874Z,7.67
2018-03-25T02:46:30.433Z,7.61
2018-03-25T02:47:10.983Z,7.64
2018-03-25T02:47:51.460Z,7.68
2018-03-25T02:48:31.996Z,7.72
2018-03-25T02:49:12.435Z,7.74
2018-03-25T02:49:52.934Z,7.69
2018-03-25T02:50:33.442Z,7.72
2018-03-25T02:51:13.881Z,7.69
2018-03-25T02:51:54.388Z,7.58
2018-03-25T02:52:35.078Z,7.55
2018-03-25T02:53:15.567Z,7.63
2018-03-25T02:53:55.986Z,7.58
2018-03-25T02:54:36.468Z,7.57
2018-03-25T02:55:16.973Z,7.55
2018-03-25T02:55:57.443Z,7.43
2018-03-25T02:56:37.925Z,7.43
2018-03-25T02:57:18.459Z,7.46
2018-03-25T02:57:58.949Z,7.42
2018-03-25T02:58:39.431Z,7.42
2018-03-25T02:59:19.954Z,7.42
2018-03-25T03:00:00.414Z,7.48
2018-03-25T03:00:40.872Z,7.37
2018-03-25T03:01:21.402Z,7.39
2018-03-25T03:02:01.902Z,7.46
2018-03-25T03:02:42.368Z,7.4
2018-03-25T03:03:22.871Z,7.4
2018-03-25T03:04:03.406Z,7.42
2018-03-25T03:04:43.864Z,7.46
2018-03-25T03:05:24.348Z,7.52
2018-03-25T03:06:04.878Z,7.53
2018-03-25T03:06:45.409Z,7.49
2018-03-25T03:07:25.800Z,7.58
2018-03-25T03:08:06.367Z,7.64
2018-03-25T03:08:46.904Z,7.63
2018-03-25T03:09:27.409Z,7.55
2018-03-25T03:10:07.887Z,7.49
2018-03-25T03:10:48.363Z,7.5
2018-03-25T03:11:28.872Z,7.4
2018-03-25T03:12:09.373Z,7.4
2018-03-25T03:12:49.843Z,7.48
2018-03-25T03:13:30.329Z,7.45
2018-03-25T03:14:10.823Z,7.46
2018-03-25T03:14:51.287Z,7.32
2018-03-25T03:15:31.790Z,7.3
2018-03-25T03:16:12.252Z,7.32
2018-03-25T03:16:52.788Z,7.28
2018-03-25T03:17:33.313Z,7.31
2018-03-25T03:18:13.749Z,7.31
2018-03-25T03:18:54.264Z,7.3
2018-03-25T03:19:34.763Z,7.35
2018-03-25T03:20:15.251Z,7.4
2018-03-25T03:20:55.694Z,7.5
2018-03-25T03:21:36.200Z,7.43
2018-03-25T03:22:16.677Z,7.37
2018-03-25T03:22:57.186Z,7.39
2018-03-25T03:23:37.681Z,7.37
2018-03-25T03:24:18.168Z,7.52
2018-03-25T03:24:58.590Z,7.58
2018-03-25T03:25:39.093Z,7.58
2018-03-25T03:26:19.599Z,7.55
2018-03-25T03:27:00.062Z,7.5
2018-03-25T03:27:40.575Z,7.5
2018-03-25T03:28:21.049Z,7.64
2018-03-25T03:29:01.524Z,7.6
2018-03-25T03:29:42.001Z,7.53
2018-03-25T03:30:22.534Z,7.58
2018-03-25T03:31:03.015Z,7.68
2018-03-25T03:31:43.531Z,7.74
2018-03-25T03:32:24.084Z,7.75
2018-03-25T03:33:04.545Z,7.64
2018-03-25T03:33:45.087Z,7.75
2018-03-25T03:34:25.503Z,7.67
2018-03-25T03:35:06.000Z,7.57
2018-03-25T03:35:46.460Z,7.64
2018-03-25T03:36:26.949Z,7.75
2018-03-25T03:37:07.448Z,7.69
2018-03-25T03:37:47.939Z,7.69
2018-03-25T03:38:28.383Z,7.75
2018-03-25T03:39:08.863Z,7.75
2018-03-25T03:39:49.413Z,7.72
2018-03-25T03:40:29.886Z,7.75
2018-03-25T03:41:10.363Z,7.71
2018-03-25T03:41:50.830Z,7.69
2018-03-25T03:42:31.342Z,7.79
2018-03-25T03:43:11.840Z,7.74
2018-03-25T03:43:52.317Z,7.77
2018-03-25T03:44:32.837Z,7.77
2018-03-25T03:45:13.336Z,7.75
2018-03-25T03:45:53.855Z,7.69
2018-03-25T03:46:34.347Z,7.48
2018-03-25T03:47:14.808Z,7.45
2018-03-25T03:47:55.319Z,7.52
2018-03-25T03:48:35.772Z,7.45
2018-03-25T03:49:16.278Z,7.12
2018-03-25T03:49:56.762Z,7.3
2018-03-25T03:50:37.291Z,7.15
2018-03-25T03:51:17.700Z,7.2
2018-03-25T03:51:58.222Z,7.15
2018-03-25T03:52:38.760Z,7.28
2018-03-25T03:53:19.193Z,7.23
2018-03-25T03:53:59.672Z,7.09
2018-03-25T03:54:40.146Z,7.15
2018-03-25T03:55:20.612Z,7.15
2018-03-25T03:56:01.101Z,7.07
2018-03-25T03:56:41.593Z,7.05
2018-03-25T03:57:22.134Z,7.05
2018-03-25T03:58:02.589Z,7.05
2018-03-25T03:58:43.101Z,7.06
2018-03-25T03:59:23.584Z,6.94
2018-03-25T04:00:04.020Z,6.98
2018-03-25T04:00:44.507Z,7.1
2018-03-25T04:01:25.037Z,7.05
2018-03-25T04:02:05.486Z,6.89
2018-03-25T04:02:45.947Z,6.97
2018-03-25T04:03:26.443Z,6.8
2018-03-25T04:04:06.903Z,6.84
2018-03-25T04:04:47.409Z,7.02
2018-03-25T04:05:27.879Z,7.02
2018-03-25T04:06:08.414Z,6.94
2018-03-25T04:06:48.881Z,7.02
2018-03-25T04:07:29.396Z,6.91
2018-03-25T04:08:09.849Z,6.89
2018-03-25T04:08:50.369Z,6.76
2018-03-25T04:09:30.812Z,6.88
2018-03-25T04:10:11.302Z,6.89
2018-03-25T04:10:51.806Z,6.94
2018-03-25T04:11:32.308Z,7.09
2018-03-25T04:12:12.809Z,6.94
2018-03-25T04:12:53.276Z,6.81
2018-03-25T04:13:33.763Z,6.8
2018-03-25T04:14:14.206Z,6.77
2018-03-25T04:14:54.721Z,6.76
2018-03-25T04:15:35.168Z,6.88
2018-03-25T04:16:15.699Z,6.8
2018-03-25T04:16:56.144Z,6.66
2018-03-25T04:17:36.650Z,6.71
2018-03-25T04:18:17.173Z,6.64
2018-03-25T04:18:57.638Z,6.52
2018-03-25T04:19:38.096Z,6.4
2018-03-25T04:20:18.584Z,6.48
2018-03-25T04:20:59.054Z,6.49
2018-03-25T04:21:39.544Z,6.46
2018-03-25T04:22:20.050Z,6.55
2018-03-25T04:23:00.573Z,6.43
2018-03-25T04:23:41.060Z,6.49
2018-03-25T04:24:21.534Z,6.51
2018-03-25T04:25:02.024Z,6.49
2018-03-25T04:25:42.494Z,6.61
2018-03-25T04:26:23.035Z,6.55
2018-03-25T04:27:03.476Z,6.49
2018-03-25T04:27:43.988Z,6.55
2018-03-25T04:28:24.441Z,6.41
2018-03-25T04:29:04.988Z,6.56
2018-03-25T04:29:45.451Z,6.44
2018-03-25T04:30:25.947Z,6.52
2018-03-25T04:31:06.464Z,6.49
2018-03-25T04:31:46.926Z,6.38
2018-03-25T04:32:27.414Z,6.41
2018-03-25T04:33:07.913Z,6.38
2018-03-25T04:33:48.413Z,6.25
2018-03-25T04:34:28.962Z,6.31
2018-03-25T04:35:09.443Z,6.3
2018-03-25T04:35:49.929Z,6.22
2018-03-25T04:36:30.424Z,6.22
2018-03-25T04:37:10.920Z,6.28
2018-03-25T04:37:51.367Z,6.4
2018-03-25T04:38:31.864Z,6.37
2018-03-25T04:39:12.339Z,6.28
2018-03-25T04:39:52.812Z,6.14
2018-03-25T04:40:33.328Z,6.27
2018-03-25T04:41:13.753Z,6.34
2018-03-25T04:41:54.257Z,6.31
2018-03-25T04:42:34.763Z,6.22
2018-03-25T04:43:15.290Z,6.18
2018-03-25T04:43:55.737Z,6.22
2018-03-25T04:44:36.247Z,6.22
2018-03-25T04:45:16.736Z,6.22
2018-03-25T04:45:57.218Z,6.18
2018-03-25T04:46:37.682Z,6.15
2018-03-25T04:47:18.211Z,6.09
2018-03-25T04:47:58.668Z,6.19
2018-03-25T04:48:39.112Z,6.17
2018-03-25T04:49:19.592Z,6.3
2018-03-25T04:50:00.082Z,6.37
2018-03-25T04:50:40.578Z,6.25
2018-03-25T04:51:21.055Z,6.12
2018-03-25T04:52:01.530Z,6.19
2018-03-25T04:52:41.994Z,6.15
2018-03-25T04:53:22.510Z,6.17
2018-03-25T04:54:03.037Z,6.14
2018-03-25T04:54:43.530Z,6.22
2018-03-25T04:55:24.034Z,6.33
2018-03-25T04:56:04.534Z,6.25
2018-03-25T04:56:44.925Z,6.31
2018-03-25T04:57:25.426Z,6.4
2018-03-25T04:58:05.922Z,6.34
2018-03-25T04:58:46.486Z,6.4
2018-03-25T04:59:26.925Z,6.41
2018-03-25T05:00:07.429Z,6.41
2018-03-25T05:00:47.914Z,6.38
2018-03-25T05:01:28.473Z,6.38
2018-03-25T05:02:08.906Z,6.34
2018-03-25T05:02:49.379Z,6.38
2018-03-25T05:03:29.869Z,6.34
2018-03-25T05:04:10.367Z,6.25
2018-03-25T05:04:50.841Z,6.38
2018-03-25T05:05:31.372Z,6.33
2018-03-25T05:06:11.819Z,6.22
2018-03-25T05:06:52.305Z,6.12
2018-03-25T05:07:32.796Z,6.21
2018-03-25T05:08:13.294Z,6.17
2018-03-25T05:08:53.757Z,6.31
2018-03-25T05:09:34.278Z,6.31
2018-03-25T05:10:14.781Z,6.28
2018-03-25T05:10:55.243Z,6.31
2018-03-25T05:11:35.744Z,6.33
2018-03-25T05:12:16.269Z,6.31
2018-03-25T05:12:56.708Z,6.19
2018-03-25T05:13:37.233Z,6.25
2018-03-25T05:14:17.715Z,6.28
2018-03-25T05:14:58.252Z,6.28
2018-03-25T05:15:38.681Z,6.3
2018-03-25T05:16:19.146Z,6.19
2018-03-25T05:16:59.646Z,6.12
2018-03-25T05:17:40.124Z,6.17
2018-03-25T05:18:20.597Z,6.08
2018-03-25T05:19:01.044Z,6.12
2018-03-25T05:19:41.545Z,6.06
2018-03-25T05:20:21.984Z,6.06
2018-03-25T05:21:02.540Z,6.06
2018-03-25T05:21:42.970Z,6.03
2018-03-25T05:22:23.521Z,6.14
2018-03-25T05:23:03.926Z,6.17
2018-03-25T05:23:44.437Z,6.17
2018-03-25T05:24:24.927Z,6.12
2018-03-25T05:25:05.434Z,6.22
2018-03-25T05:25:45.906Z,6.28
2018-03-25T05:26:26.471Z,6.28
2018-03-25T05:27:07.037Z,6.25
2018-03-25T05:27:47.505Z,6.33
2018-03-25T05:28:27.981Z,6.37
2018-03-25T05:29:08.488Z,6.34
2018-03-25T05:29:48.945Z,6.34
2018-03-25T05:30:29.450Z,6.38
2018-03-25T05:31:09.930Z,6.37
2018-03-25T05:31:50.477Z,6.34
2018-03-25T05:32:30.917Z,6.33
2018-03-25T05:33:11.423Z,6.46
2018-03-25T05:33:51.921Z,6.3
2018-03-25T05:34:32.388Z,6.44
2018-03-25T05:35:12.897Z,6.38
2018-03-25T05:35:53.407Z,6.43
2018-03-25T05:36:33.931Z,6.44
2018-03-25T05:37:14.384Z,6.59
2018-03-25T05:37:54.917Z,6.64
2018-03-25T05:38:35.376Z,6.77
2018-03-25T05:39:15.871Z,6.79
2018-03-25T05:39:56.354Z,6.8
2018-03-25T05:40:36.820Z,6.7
2018-03-25T05:41:17.370Z,6.58
2018-03-25T05:41:57.821Z,6.55
2018-03-25T05:42:38.366Z,6.61
2018-03-25T05:43:18.829Z,6.61
2018-03-25T05:43:59.349Z,6.61
2018-03-25T05:44:39.824Z,6.61
2018-03-25T05:45:20.296Z,6.48
2018-03-25T05:46:00.818Z,6.4
2018-03-25T05:46:41.301Z,6.44
2018-03-25T05:47:21.803Z,6.51
2018-03-25T05:48:02.299Z,6.52
2018-03-25T05:48:42.815Z,6.48
2018-03-25T05:49:23.299Z,6.61
2018-03-25T05:50:03.783Z,6.54
2018-03-25T05:50:44.301Z,6.67
2018-03-25T05:51:24.844Z,6.81
2018-03-25T05:52:05.310Z,6.79
2018-03-25T05:52:45.783Z,6.73
2018-03-25T05:53:26.308Z,6.77
2018-03-25T05:54:06.798Z,6.77
2018-03-25T05:54:47.289Z,6.81
2018-03-25T05:55:27.737Z,6.7
2018-03-25T05:56:08.256Z,6.76
2018-03-25T05:56:48.744Z,6.77
2018-03-25T05:57:29.252Z,6.79
2018-03-25T05:58:09.731Z,6.81
2018-03-25T05:58:50.210Z,6.77
2018-03-25T05:59:30.665Z,6.69
2018-03-25T06:00:11.196Z,6.81
2018-03-25T06:00:51.705Z,6.77
2018-03-25T06:01:32.191Z,6.87
2018-03-25T06:02:12.633Z,6.87
2018-03-25T06:02:53.153Z,7.03
2018-03-25T06:03:33.602Z,6.94
2018-03-25T06:04:14.084Z,7.06
2018-03-25T06:04:54.625Z,7.13
2018-03-25T06:05:35.063Z,7.12
2018-03-25T06:06:15.571Z,7.2
2018-03-25T06:06:56.090Z,7.24
2018-03-25T06:07:36.534Z,7.34
2018-03-25T06:08:17.017Z,7.34
2018-03-25T06:08:57.468Z,7.27
2018-03-25T06:09:37.966Z,7.15
2018-03-25T06:10:18.423Z,7.17
2018-03-25T06:10:58.907Z,7.1
2018-03-25T06:11:39.383Z,7.16
2018-03-25T06:12:19.858Z,7.28
2018-03-25T06:13:00.388Z,7.28
2018-03-25T06:13:40.906Z,7.39
2018-03-25T06:14:21.380Z,7.3
2018-03-25T06:15:01.848Z,7.32
2018-03-25T06:15:42.351Z,7.31
2018-03-25T06:16:22.804Z,7.21
2018-03-25T06:17:03.313Z,7.17
2018-03-25T06:17:43.859Z,7.13
2018-03-25T06:18:24.350Z,7.15
2018-03-25T06:19:04.852Z,7.13
2018-03-25T06:19:45.357Z,7.1
2018-03-25T06:20:25.903Z,7.13
2018-03-25T06:21:06.353Z,7.02
2018-03-25T06:21:46.864Z,7.09
2018-03-25T06:22:27.321Z,7.17
2018-03-25T06:23:07.809Z,7.15
2018-03-25T06:23:48.317Z,7.09
2018-03-25T06:24:28.805Z,7.1
2018-03-25T06:25:09.358Z,7.06
2018-03-25T06:25:49.870Z,7.03
2018-03-25T06:26:30.361Z,7.03
2018-03-25T06:27:10.870Z,7.2
2018-03-25T06:27:51.315Z,7.15
2018-03-25T06:28:31.831Z,7.12
2018-03-25T06:29:12.345Z,7.3
2018-03-25T06:29:52.865Z,7.28
2018-03-25T06:30:33.361Z,7.25
2018-03-25T06:31:13.879Z,7.17
2018-03-25T06:31:54.327Z,7.21
2018-03-25T06:32:34.859Z,7.21
2018-03-25T06:33:15.342Z,7.15
2018-03-25T06:33:55.803Z,7.21
2018-03-25T06:34:36.290Z,7.28
2018-03-25T06:35:16.816Z,7.28
2018-03-25T06:35:58.203Z,7.34
2018-03-25T06:36:38.667Z,7.28
2018-03-25T06:37:19.172Z,7.32
2018-03-25T06:37:59.689Z,7.21
2018-03-25T06:38:40.650Z,7.31
2018-03-25T06:39:21.178Z,7.32
2018-03-25T06:40:01.666Z,7.13
2018-03-25T06:40:42.125Z,7.27
2018-03-25T06:41:22.628Z,7.24
2018-03-25T06:42:03.122Z,7.3
2018-03-25T06:42:43.628Z,7.31
2018-03-25T06:43:24.084Z,7.34
2018-03-25T06:44:04.565Z,7.39
2018-03-25T06:44:45.053Z,7.52
2018-03-25T06:45:25.604Z,7.45
2018-03-25T06:46:06.131Z,7.42
2018-03-25T06:46:46.572Z,7.49
2018-03-25T06:47:27.042Z,7.42
2018-03-25T06:48:07.522Z,7.34
2018-03-25T06:48:47.993Z,7.39
2018-03-25T06:49:28.530Z,7.42
2018-03-25T06:50:09.016Z,7.42
2018-03-25T06:50:49.517Z,7.55
2018-03-25T06:51:30.057Z,7.72
2018-03-25T06:52:10.485Z,7.68
2018-03-25T06:52:50.942Z,7.67
2018-03-25T06:53:31.415Z,7.67
2018-03-25T06:54:12.053Z,7.67
2018-03-25T06:54:52.414Z,7.72
2018-03-25T06:55:32.982Z,7.71
2018-03-25T06:56:13.407Z,7.85
2018-03-25T06:56:53.872Z,7.95
2018-03-25T06:57:34.350Z,8
2018-03-25T06:58:14.851Z,7.98
2018-03-25T06:58:55.350Z,7.86
2018-03-25T06:59:35.828Z,8.01
2018-03-25T07:00:16.304Z,7.97
2018-03-25T07:00:56.824Z,7.86
2018-03-25T07:01:37.325Z,7.79
2018-03-25T07:02:17.833Z,7.8
2018-03-25T07:02:58.331Z,7.89
2018-03-25T07:03:38.793Z,7.92
2018-03-25T07:04:19.313Z,7.98
2018-03-25T07:04:59.800Z,8.01
2018-03-25T07:05:40.312Z,8.16
2018-03-25T07:06:20.776Z,8.08
2018-03-25T07:07:01.279Z,8.26
2018-03-25T07:07:41.754Z,8.25
2018-03-25T07:08:22.226Z,8.26
2018-03-25T07:09:02.736Z,8.3
2018-03-25T07:09:43.224Z,8.4
2018-03-25T07:10:23.737Z,8.52
2018-03-25T07:11:04.281Z,8.36
2018-03-25T07:11:44.690Z,8.45
2018-03-25T07:12:25.223Z,8.58
2018-03-25T07:13:05.706Z,8.63
2018-03-25T07:13:46.170Z,8.65
2018-03-25T07:14:26.681Z,8.8
2018-03-25T07:15:07.187Z,8.79
2018-03-25T07:15:47.673Z,8.62
2018-03-25T07:16:28.152Z,8.79
2018-03-25T07:17:08.636Z,8.81
2018-03-25T07:17:49.104Z,8.89
2018-03-25T07:18:29.633Z,8.89
2018-03-25T07:19:10.151Z,8.89
2018-03-25T07:19:50.626Z,8.79
2018-03-25T07:20:31.115Z,8.8
2018-03-25T07:21:11.570Z,8.84
2018-03-25T07:21:52.061Z,8.84
2018-03-25T07:22:32.578Z,8.81
2018-03-25T07:23:13.048Z,8.81
2018-03-25T07:23:53.568Z,8.79
2018-03-25T07:24:34.011Z,8.81
2018-03-25T07:25:14.536Z,8.81
2018-03-25T07:25:56.033Z,8.87
2018-03-25T07:26:36.804Z,8.81
2018-03-25T07:27:17.291Z,8.98
2018-03-25T07:27:57.761Z,8.94
2018-03-25T07:28:38.273Z,9.01
2018-03-25T07:29:18.807Z,9.13
2018-03-25T07:29:59.402Z,9.14
2018-03-25T07:30:40.154Z,9.11
2018-03-25T07:31:20.464Z,9.14
2018-03-25T07:32:00.930Z,9.13
2018-03-25T07:32:41.442Z,9.2
2018-03-25T07:33:21.917Z,9.14
2018-03-25T07:34:02.385Z,9.17
2018-03-25T07:34:42.882Z,9.1
2018-03-25T07:35:23.376Z,9.13
2018-03-25T07:36:03.868Z,9.2
2018-03-25T07:36:44.369Z,9.14
2018-03-25T07:37:24.828Z,9.11
2018-03-25T07:38:05.388Z,9.14
2018-03-25T07:38:45.835Z,9.08
2018-03-25T07:39:26.305Z,9.13
2018-03-25T07:40:06.879Z,9.28
2018-03-25T07:40:47.401Z,9.21
2018-03-25T07:41:27.857Z,9.15
2018-03-25T07:42:08.368Z,9.28
2018-03-25T07:42:49.021Z,9.31
2018-03-25T07:43:29.381Z,9.33
2018-03-25T07:44:11.072Z,9.36
2018-03-25T07:44:51.099Z,9.36
2018-03-25T07:45:31.618Z,9.28
2018-03-25T07:46:12.118Z,9.36
2018-03-25T07:46:52.680Z,9.31
2018-03-25T07:47:33.304Z,9.28
2018-03-25T07:48:13.770Z,9.36
2018-03-25T07:48:54.287Z,9.35
2018-03-25T07:49:34.778Z,9.26
2018-03-25T07:50:15.332Z,9.32
2018-03-25T07:50:55.854Z,9.4
2018-03-25T07:51:36.328Z,9.36
2018-03-25T07:52:16.794Z,9.38
2018-03-25T07:52:57.362Z,9.43
2018-03-25T07:53:37.773Z,9.43
2018-03-25T07:54:18.339Z,9.38
2018-03-25T07:54:58.784Z,9.53
2018-03-25T07:55:40.994Z,9.51
2018-03-25T07:56:22.025Z,9.53
2018-03-25T07:57:02.344Z,9.5
2018-03-25T07:57:42.869Z,9.61
2018-03-25T07:58:23.336Z,9.6
2018-03-25T07:59:04.022Z,9.74
2018-03-25T07:59:44.513Z,9.6
2018-03-25T08:00:26.248Z,9.68
2018-03-25T08:01:07.697Z,9.74
2018-03-25T08:01:48.556Z,9.64
2018-03-25T08:02:30.362Z,9.69
2018-03-25T08:03:12.951Z,9.6
2018-03-25T08:03:53.429Z,9.71
2018-03-25T08:04:33.930Z,9.64
2018-03-25T08:05:14.889Z,9.51
2018-03-25T08:05:55.475Z,9.57
2018-03-25T08:06:35.915Z,9.39
2018-03-25T08:07:16.400Z,9.21
2018-03-25T08:07:57.046Z,9.11
2018-03-25T08:08:37.546Z,9.14
2018-03-25T08:09:18.100Z,9.13
2018-03-25T08:09:58.612Z,9.13
2018-03-25T08:10:39.044Z,9.08
2018-03-25T08:11:19.596Z,9.29
2018-03-25T08:12:00.048Z,9.26
2018-03-25T08:12:40.615Z,9.28
2018-03-25T08:13:21.057Z,9.24
2018-03-25T08:14:01.549Z,9.32
2018-03-25T08:14:42.009Z,9.17
2018-03-25T08:15:22.499Z,9.08
2018-03-25T08:16:02.993Z,9.17
2018-03-25T08:16:43.533Z,9.26
2018-03-25T08:17:23.960Z,9.13
2018-03-25T08:18:04.452Z,9.13
2018-03-25T08:18:44.973Z,9.24
2018-03-25T08:19:25.441Z,9.35
2018-03-25T08:20:06.016Z,9.51
2018-03-25T08:20:46.456Z,9.54
2018-03-25T08:21:27.010Z,9.53
2018-03-25T08:22:07.442Z,9.57
2018-03-25T08:22:48.137Z,9.5
2018-03-25T08:23:28.645Z,9.5
2018-03-25T08:24:09.465Z,9.6
2018-03-25T08:24:49.965Z,9.6
2018-03-25T08:25:30.445Z,9.76
2018-03-25T08:26:10.887Z,9.64
2018-03-25T08:26:51.377Z,9.71
2018-03-25T08:27:31.843Z,9.75
2018-03-25T08:28:12.350Z,9.66
2018-03-25T08:28:52.871Z,9.57
2018-03-25T08:29:33.390Z,9.54
2018-03-25T08:30:15.643Z,9.38
2018-03-25T08:32:07.194Z,9.53
2018-03-25T08:32:47.590Z,9.54
2018-03-25T08:33:28.141Z,9.35
2018-03-25T08:34:08.643Z,9.31
2018-03-25T08:34:49.149Z,9.33
2018-03-25T08:35:29.804Z,9.17
2018-03-25T08:36:10.307Z,9.05
2018-03-25T08:36:50.802Z,9.24
2018-03-25T08:37:31.346Z,9.32
2018-03-25T08:38:11.854Z,9.35
2018-03-25T08:38:52.544Z,9.39
2018-03-25T08:39:32.956Z,9.38
2018-03-25T08:40:13.961Z,9.43
2018-03-25T08:40:54.206Z,9.35
2018-03-25T08:41:34.692Z,9.42
2018-03-25T08:42:15.446Z,9.5
2018-03-25T08:42:56.400Z,9.6
2018-03-25T08:43:36.969Z,9.65
2018-03-25T08:44:17.728Z,9.66
2018-03-25T08:44:58.184Z,9.68
2018-03-25T08:45:38.675Z,9.58
2018-03-25T08:46:19.168Z,9.69
2018-03-25T08:46:59.683Z,9.68
2018-03-25T08:47:40.280Z,9.69
2018-03-25T08:48:20.716Z,9.72
2018-03-25T08:49:01.239Z,9.68
2018-03-25T08:49:41.727Z,9.65
2018-03-25T08:50:22.355Z,9.64
2018-03-25T08:51:02.870Z,9.57
2018-03-25T08:51:43.364Z,9.65
2018-03-25T08:52:23.986Z,9.6
2018-03-25T08:53:04.369Z,9.74
2018-03-25T08:53:44.867Z,9.68
2018-03-25T08:54:25.314Z,9.75
2018-03-25T08:55:05.904Z,9.64
2018-03-25T08:55:46.376Z,9.66
2018-03-25T08:56:26.860Z,9.64
2018-03-25T08:57:07.470Z,9.69
2018-03-25T08:57:47.940Z,9.74
2018-03-25T08:58:28.431Z,9.68
2018-03-25T08:59:09.036Z,9.78
2018-03-25T08:59:49.507Z,9.75
2018-03-25T09:00:30.057Z,9.76
2018-03-25T09:01:10.502Z,9.75
2018-03-25T09:01:51.642Z,9.89
2018-03-25T09:02:32.333Z,9.86